sensor_id;sensor_type;location;lat;lon;timestamp;temperature;humidity
9837;DHT22;4957;51.412;6.724;2023-02-28T00:00:16;1.90;91.50
9837;DHT22;4957;51.412;6.724;2023-02-28T00:02:43;1.80;91.60
9837;DHT22;4957;51.412;6.724;2023-02-28T00:05:10;1.80;91.60
9837;DHT22;4957;51.412;6.724;2023-02-28T00:07:36;1.80;91.60
9837;DHT22;4957;51.412;6.724;2023-02-28T00:10:04;1.70;91.60
9837;DHT22;4957;51.412;6.724;2023-02-28T00:12:32;1.70;91.70
9837;DHT22;4957;51.412;6.724;2023-02-28T00:14:57;1.70;91.80
9837;DHT22;4957;51.412;6.724;2023-02-28T00:17:23;1.70;91.90
9837;DHT22;4957;51.412;6.724;2023-02-28T00:19:49;1.70;91.90
9837;DHT22;4957;51.412;6.724;2023-02-28T00:22:20;1.60;91.90
9837;DHT22;4957;51.412;6.724;2023-02-28T00:24:46;1.60;91.90
9837;DHT22;4957;51.412;6.724;2023-02-28T00:27:13;1.60;91.90
9837;DHT22;4957;51.412;6.724;2023-02-28T00:29:39;1.50;91.90
9837;DHT22;4957;51.412;6.724;2023-02-28T00:32:06;1.50;92.00
9837;DHT22;4957;51.412;6.724;2023-02-28T00:34:32;1.50;92.00
9837;DHT22;4957;51.412;6.724;2023-02-28T00:37:07;1.50;92.10
9837;DHT22;4957;51.412;6.724;2023-02-28T00:39:35;1.40;92.10
9837;DHT22;4957;51.412;6.724;2023-02-28T00:42:01;1.40;92.20
9837;DHT22;4957;51.412;6.724;2023-02-28T00:44:28;1.30;92.20
9837;DHT22;4957;51.412;6.724;2023-02-28T00:46:53;1.30;92.30
9837;DHT22;4957;51.412;6.724;2023-02-28T00:49:20;1.30;92.40
9837;DHT22;4957;51.412;6.724;2023-02-28T00:51:46;1.30;92.40
9837;DHT22;4957;51.412;6.724;2023-02-28T00:54:12;1.30;92.40
9837;DHT22;4957;51.412;6.724;2023-02-28T00:56:38;1.30;92.50
9837;DHT22;4957;51.412;6.724;2023-02-28T00:59:03;1.30;92.60
9837;DHT22;4957;51.412;6.724;2023-02-28T01:01:29;1.30;92.70
9837;DHT22;4957;51.412;6.724;2023-02-28T01:03:54;1.30;92.80
9837;DHT22;4957;51.412;6.724;2023-02-28T01:06:20;1.20;92.90
9837;DHT22;4957;51.412;6.724;2023-02-28T01:08:46;1.30;92.90
9837;DHT22;4957;51.412;6.724;2023-02-28T01:11:13;1.20;92.90
9837;DHT22;4957;51.412;6.724;2023-02-28T01:13:40;1.20;93.00
9837;DHT22;4957;51.412;6.724;2023-02-28T01:16:06;1.20;93.00
9837;DHT22;4957;51.412;6.724;2023-02-28T01:18:32;1.20;93.10
9837;DHT22;4957;51.412;6.724;2023-02-28T01:20:58;1.20;93.20
9837;DHT22;4957;51.412;6.724;2023-02-28T01:23:24;1.20;93.10
9837;DHT22;4957;51.412;6.724;2023-02-28T01:25:50;1.20;93.20
9837;DHT22;4957;51.412;6.724;2023-02-28T01:28:16;1.30;93.20
9837;DHT22;4957;51.412;6.724;2023-02-28T01:30:42;1.20;93.20
9837;DHT22;4957;51.412;6.724;2023-02-28T01:33:08;1.20;93.20
9837;DHT22;4957;51.412;6.724;2023-02-28T01:35:34;1.20;93.30
9837;DHT22;4957;51.412;6.724;2023-02-28T01:38:01;1.20;93.30
9837;DHT22;4957;51.412;6.724;2023-02-28T01:40:27;1.20;93.40
9837;DHT22;4957;51.412;6.724;2023-02-28T01:42:52;1.10;93.30
9837;DHT22;4957;51.412;6.724;2023-02-28T01:47:52;1.10;93.40
9837;DHT22;4957;51.412;6.724;2023-02-28T01:50:25;1.10;93.40
9837;DHT22;4957;51.412;6.724;2023-02-28T01:52:54;1.10;93.40
9837;DHT22;4957;51.412;6.724;2023-02-28T01:55:22;1.10;93.50
9837;DHT22;4957;51.412;6.724;2023-02-28T01:57:52;1.10;93.60
9837;DHT22;4957;51.412;6.724;2023-02-28T02:00:24;1.10;93.40
9837;DHT22;4957;51.412;6.724;2023-02-28T02:02:55;1.10;93.90
9837;DHT22;4957;51.412;6.724;2023-02-28T02:05:24;1.10;93.60
9837;DHT22;4957;51.412;6.724;2023-02-28T02:07:55;1.00;93.50
9837;DHT22;4957;51.412;6.724;2023-02-28T02:10:30;1.00;93.50
9837;DHT22;4957;51.412;6.724;2023-02-28T02:13:19;1.00;93.50
9837;DHT22;4957;51.412;6.724;2023-02-28T02:15:57;1.00;93.40
9837;DHT22;4957;51.412;6.724;2023-02-28T02:35:17;0.90;93.80
9837;DHT22;4957;51.412;6.724;2023-02-28T02:37:59;0.90;93.40
9837;DHT22;4957;51.412;6.724;2023-02-28T02:40:31;0.80;93.40
9837;DHT22;4957;51.412;6.724;2023-02-28T02:45:43;0.80;93.30
9837;DHT22;4957;51.412;6.724;2023-02-28T02:48:13;0.80;93.20
9837;DHT22;4957;51.412;6.724;2023-02-28T02:51:17;0.90;93.40
9837;DHT22;4957;51.412;6.724;2023-02-28T02:53:52;0.90;93.30
9837;DHT22;4957;51.412;6.724;2023-02-28T02:56:22;0.80;93.30
9837;DHT22;4957;51.412;6.724;2023-02-28T02:58:50;0.80;93.20
9837;DHT22;4957;51.412;6.724;2023-02-28T03:01:23;0.90;93.20
9837;DHT22;4957;51.412;6.724;2023-02-28T03:04:16;0.80;93.10
9837;DHT22;4957;51.412;6.724;2023-02-28T03:06:42;0.80;93.10
9837;DHT22;4957;51.412;6.724;2023-02-28T03:09:08;0.70;93.00
9837;DHT22;4957;51.412;6.724;2023-02-28T03:11:35;0.70;93.00
9837;DHT22;4957;51.412;6.724;2023-02-28T03:25:23;0.60;93.00
9837;DHT22;4957;51.412;6.724;2023-02-28T03:30:58;0.50;93.10
9837;DHT22;4957;51.412;6.724;2023-02-28T03:33:33;0.40;93.10
9837;DHT22;4957;51.412;6.724;2023-02-28T03:36:08;0.40;93.20
9837;DHT22;4957;51.412;6.724;2023-02-28T03:38:49;0.40;93.20
9837;DHT22;4957;51.412;6.724;2023-02-28T03:41:28;0.30;93.20
9837;DHT22;4957;51.412;6.724;2023-02-28T03:44:07;0.30;93.20
9837;DHT22;4957;51.412;6.724;2023-02-28T03:46:38;0.30;93.20
9837;DHT22;4957;51.412;6.724;2023-02-28T03:49:40;0.30;93.20
9837;DHT22;4957;51.412;6.724;2023-02-28T03:52:09;0.20;93.20
9837;DHT22;4957;51.412;6.724;2023-02-28T03:54:41;0.30;93.30
9837;DHT22;4957;51.412;6.724;2023-02-28T03:57:21;0.30;93.30
9837;DHT22;4957;51.412;6.724;2023-02-28T03:59:59;0.20;93.20
9837;DHT22;4957;51.412;6.724;2023-02-28T04:02:29;0.30;93.40
9837;DHT22;4957;51.412;6.724;2023-02-28T04:04:55;0.20;93.40
9837;DHT22;4957;51.412;6.724;2023-02-28T04:07:21;0.20;93.50
9837;DHT22;4957;51.412;6.724;2023-02-28T04:09:46;0.20;93.50
9837;DHT22;4957;51.412;6.724;2023-02-28T04:12:12;0.20;93.60
9837;DHT22;4957;51.412;6.724;2023-02-28T04:14:38;0.20;93.50
9837;DHT22;4957;51.412;6.724;2023-02-28T04:17:03;0.10;93.50
9837;DHT22;4957;51.412;6.724;2023-02-28T04:19:29;0.10;93.60
9837;DHT22;4957;51.412;6.724;2023-02-28T04:21:55;0.10;93.60
9837;DHT22;4957;51.412;6.724;2023-02-28T04:24:26;0.00;93.60
9837;DHT22;4957;51.412;6.724;2023-02-28T04:26:55;0.00;93.60
9837;DHT22;4957;51.412;6.724;2023-02-28T04:29:31;0.00;93.60
9837;DHT22;4957;51.412;6.724;2023-02-28T04:31:58;-0.10;93.60
9837;DHT22;4957;51.412;6.724;2023-02-28T04:34:25;-0.10;93.60
9837;DHT22;4957;51.412;6.724;2023-02-28T04:36:51;-0.10;93.70
9837;DHT22;4957;51.412;6.724;2023-02-28T04:39:20;-0.10;93.70
9837;DHT22;4957;51.412;6.724;2023-02-28T04:41:46;-0.20;93.80
9837;DHT22;4957;51.412;6.724;2023-02-28T04:44:12;-0.10;93.80
9837;DHT22;4957;51.412;6.724;2023-02-28T04:46:39;-0.20;93.80
9837;DHT22;4957;51.412;6.724;2023-02-28T04:49:05;-0.20;93.80
9837;DHT22;4957;51.412;6.724;2023-02-28T04:51:30;-0.20;93.80
9837;DHT22;4957;51.412;6.724;2023-02-28T04:53:56;-0.20;93.90
9837;DHT22;4957;51.412;6.724;2023-02-28T04:56:22;-0.30;93.90
9837;DHT22;4957;51.412;6.724;2023-02-28T04:58:48;-0.30;94.00
9837;DHT22;4957;51.412;6.724;2023-02-28T05:01:22;-0.30;94.10
9837;DHT22;4957;51.412;6.724;2023-02-28T05:03:48;-0.30;94.10
9837;DHT22;4957;51.412;6.724;2023-02-28T05:06:15;-0.30;94.50
9837;DHT22;4957;51.412;6.724;2023-02-28T05:08:42;-0.30;94.20
9837;DHT22;4957;51.412;6.724;2023-02-28T05:11:23;-0.30;94.30
9837;DHT22;4957;51.412;6.724;2023-02-28T05:13:52;-0.30;94.30
9837;DHT22;4957;51.412;6.724;2023-02-28T05:16:20;-0.30;94.30
9837;DHT22;4957;51.412;6.724;2023-02-28T05:18:48;-0.30;94.30
9837;DHT22;4957;51.412;6.724;2023-02-28T05:21:27;-0.30;94.30
9837;DHT22;4957;51.412;6.724;2023-02-28T05:23:54;-0.30;94.30
9837;DHT22;4957;51.412;6.724;2023-02-28T05:26:20;-0.30;94.40
9837;DHT22;4957;51.412;6.724;2023-02-28T05:28:46;-0.30;94.70
9837;DHT22;4957;51.412;6.724;2023-02-28T05:31:12;-0.30;94.40
9837;DHT22;4957;51.412;6.724;2023-02-28T05:33:38;-0.30;94.40
9837;DHT22;4957;51.412;6.724;2023-02-28T05:36:05;-0.30;94.40
9837;DHT22;4957;51.412;6.724;2023-02-28T05:38:31;-0.30;94.30
9837;DHT22;4957;51.412;6.724;2023-02-28T05:40:57;-0.30;94.30
9837;DHT22;4957;51.412;6.724;2023-02-28T05:43:23;-0.30;94.30
9837;DHT22;4957;51.412;6.724;2023-02-28T05:45:49;-0.30;94.30
9837;DHT22;4957;51.412;6.724;2023-02-28T05:48:14;-0.40;94.20
9837;DHT22;4957;51.412;6.724;2023-02-28T05:50:40;-0.40;94.30
9837;DHT22;4957;51.412;6.724;2023-02-28T05:53:08;-0.40;94.30
9837;DHT22;4957;51.412;6.724;2023-02-28T05:55:33;-0.40;94.30
9837;DHT22;4957;51.412;6.724;2023-02-28T05:58:01;-0.40;94.30
9837;DHT22;4957;51.412;6.724;2023-02-28T06:00:27;-0.40;94.30
9837;DHT22;4957;51.412;6.724;2023-02-28T06:02:53;-0.40;94.30
9837;DHT22;4957;51.412;6.724;2023-02-28T06:05:21;-0.40;94.30
9837;DHT22;4957;51.412;6.724;2023-02-28T06:07:47;-0.40;94.40
9837;DHT22;4957;51.412;6.724;2023-02-28T06:10:13;-0.50;94.30
9837;DHT22;4957;51.412;6.724;2023-02-28T06:12:39;-0.50;94.40
9837;DHT22;4957;51.412;6.724;2023-02-28T06:15:09;-0.50;94.40
9837;DHT22;4957;51.412;6.724;2023-02-28T06:17:36;-0.50;94.50
9837;DHT22;4957;51.412;6.724;2023-02-28T06:20:02;-0.50;94.50
9837;DHT22;4957;51.412;6.724;2023-02-28T06:22:28;-0.60;94.40
9837;DHT22;4957;51.412;6.724;2023-02-28T06:24:54;-0.60;94.40
9837;DHT22;4957;51.412;6.724;2023-02-28T06:27:20;-0.60;94.50
9837;DHT22;4957;51.412;6.724;2023-02-28T06:29:46;-0.60;94.50
9837;DHT22;4957;51.412;6.724;2023-02-28T06:32:12;-0.60;94.50
9837;DHT22;4957;51.412;6.724;2023-02-28T06:34:38;-0.60;94.50
9837;DHT22;4957;51.412;6.724;2023-02-28T06:37:03;-0.60;94.50
9837;DHT22;4957;51.412;6.724;2023-02-28T06:39:30;-0.60;94.40
9837;DHT22;4957;51.412;6.724;2023-02-28T06:41:57;-0.60;94.40
9837;DHT22;4957;51.412;6.724;2023-02-28T06:44:23;-0.60;94.40
9837;DHT22;4957;51.412;6.724;2023-02-28T06:46:49;-0.60;94.40
9837;DHT22;4957;51.412;6.724;2023-02-28T06:49:15;-0.60;94.50
9837;DHT22;4957;51.412;6.724;2023-02-28T06:51:42;-0.60;94.50
9837;DHT22;4957;51.412;6.724;2023-02-28T06:54:11;-0.60;94.50
9837;DHT22;4957;51.412;6.724;2023-02-28T06:56:37;-0.60;94.50
9837;DHT22;4957;51.412;6.724;2023-02-28T06:59:03;-0.60;94.50
9837;DHT22;4957;51.412;6.724;2023-02-28T07:01:29;-0.60;94.50
9837;DHT22;4957;51.412;6.724;2023-02-28T07:03:57;-0.60;94.50
9837;DHT22;4957;51.412;6.724;2023-02-28T07:06:23;-0.60;94.50
9837;DHT22;4957;51.412;6.724;2023-02-28T07:08:50;-0.50;94.60
9837;DHT22;4957;51.412;6.724;2023-02-28T07:11:16;-0.60;94.50
9837;DHT22;4957;51.412;6.724;2023-02-28T07:13:41;-0.60;94.70
9837;DHT22;4957;51.412;6.724;2023-02-28T07:16:10;-0.50;94.80
9837;DHT22;4957;51.412;6.724;2023-02-28T07:18:37;-0.50;94.90
9837;DHT22;4957;51.412;6.724;2023-02-28T07:21:05;-0.40;95.10
9837;DHT22;4957;51.412;6.724;2023-02-28T07:23:32;-0.40;95.20
9837;DHT22;4957;51.412;6.724;2023-02-28T07:25:58;-0.30;95.30
9837;DHT22;4957;51.412;6.724;2023-02-28T07:28:24;-0.30;95.40
9837;DHT22;4957;51.412;6.724;2023-02-28T07:30:50;-0.20;95.50
9837;DHT22;4957;51.412;6.724;2023-02-28T07:33:16;-0.20;95.60
9837;DHT22;4957;51.412;6.724;2023-02-28T07:35:41;-0.20;95.70
9837;DHT22;4957;51.412;6.724;2023-02-28T07:38:08;-0.10;95.70
9837;DHT22;4957;51.412;6.724;2023-02-28T07:40:35;-0.10;95.70
9837;DHT22;4957;51.412;6.724;2023-02-28T07:43:01;-0.10;95.70
9837;DHT22;4957;51.412;6.724;2023-02-28T07:45:28;0.00;95.70
9837;DHT22;4957;51.412;6.724;2023-02-28T07:47:54;0.10;95.70
9837;DHT22;4957;51.412;6.724;2023-02-28T07:50:20;0.10;95.70
9837;DHT22;4957;51.412;6.724;2023-02-28T07:52:46;0.10;95.60
9837;DHT22;4957;51.412;6.724;2023-02-28T07:55:11;0.20;95.60
9837;DHT22;4957;51.412;6.724;2023-02-28T07:57:39;0.20;95.60
9837;DHT22;4957;51.412;6.724;2023-02-28T08:00:07;0.20;95.60
9837;DHT22;4957;51.412;6.724;2023-02-28T08:02:36;0.30;95.70
9837;DHT22;4957;51.412;6.724;2023-02-28T08:05:01;0.30;95.70
9837;DHT22;4957;51.412;6.724;2023-02-28T08:07:27;0.40;95.80
9837;DHT22;4957;51.412;6.724;2023-02-28T08:09:53;0.50;95.70
9837;DHT22;4957;51.412;6.724;2023-02-28T08:12:19;0.50;95.70
9837;DHT22;4957;51.412;6.724;2023-02-28T08:14:45;0.60;95.70
9837;DHT22;4957;51.412;6.724;2023-02-28T08:17:11;0.60;95.50
9837;DHT22;4957;51.412;6.724;2023-02-28T08:19:37;0.70;95.40
9837;DHT22;4957;51.412;6.724;2023-02-28T08:22:03;0.70;95.30
9837;DHT22;4957;51.412;6.724;2023-02-28T08:24:29;0.70;95.10
9837;DHT22;4957;51.412;6.724;2023-02-28T08:26:55;0.80;95.10
9837;DHT22;4957;51.412;6.724;2023-02-28T08:29:20;0.80;95.10
9837;DHT22;4957;51.412;6.724;2023-02-28T08:31:46;0.90;95.00
9837;DHT22;4957;51.412;6.724;2023-02-28T08:34:14;0.90;94.90
9837;DHT22;4957;51.412;6.724;2023-02-28T08:36:40;0.90;94.90
9837;DHT22;4957;51.412;6.724;2023-02-28T08:39:07;1.00;94.70
9837;DHT22;4957;51.412;6.724;2023-02-28T08:41:33;1.10;94.50
9837;DHT22;4957;51.412;6.724;2023-02-28T08:43:59;1.20;94.30
9837;DHT22;4957;51.412;6.724;2023-02-28T08:46:25;1.20;94.20
9837;DHT22;4957;51.412;6.724;2023-02-28T08:48:53;1.30;94.10
9837;DHT22;4957;51.412;6.724;2023-02-28T08:51:20;1.30;94.00
9837;DHT22;4957;51.412;6.724;2023-02-28T08:53:59;1.40;93.80
9837;DHT22;4957;51.412;6.724;2023-02-28T08:56:29;1.40;93.70
9837;DHT22;4957;51.412;6.724;2023-02-28T08:58:56;1.50;93.60
9837;DHT22;4957;51.412;6.724;2023-02-28T09:01:27;1.50;93.50
9837;DHT22;4957;51.412;6.724;2023-02-28T09:03:54;1.60;93.40
9837;DHT22;4957;51.412;6.724;2023-02-28T09:06:23;1.70;93.40
9837;DHT22;4957;51.412;6.724;2023-02-28T09:08:49;1.70;93.30
9837;DHT22;4957;51.412;6.724;2023-02-28T09:11:15;1.70;93.20
9837;DHT22;4957;51.412;6.724;2023-02-28T09:13:41;1.80;93.20
9837;DHT22;4957;51.412;6.724;2023-02-28T09:16:10;1.90;93.20
9837;DHT22;4957;51.412;6.724;2023-02-28T09:18:36;2.00;92.80
9837;DHT22;4957;51.412;6.724;2023-02-28T09:21:07;2.00;92.40
9837;DHT22;4957;51.412;6.724;2023-02-28T09:23:34;2.10;92.20
9837;DHT22;4957;51.412;6.724;2023-02-28T09:26:00;2.20;92.00
9837;DHT22;4957;51.412;6.724;2023-02-28T09:28:26;2.30;91.80
9837;DHT22;4957;51.412;6.724;2023-02-28T09:30:54;2.40;91.60
9837;DHT22;4957;51.412;6.724;2023-02-28T09:33:21;2.50;91.30
9837;DHT22;4957;51.412;6.724;2023-02-28T09:35:48;2.60;91.20
9837;DHT22;4957;51.412;6.724;2023-02-28T09:38:14;2.70;91.00
9837;DHT22;4957;51.412;6.724;2023-02-28T09:40:51;2.70;90.90
9837;DHT22;4957;51.412;6.724;2023-02-28T09:43:20;2.90;90.20
9837;DHT22;4957;51.412;6.724;2023-02-28T09:45:55;2.90;90.20
9837;DHT22;4957;51.412;6.724;2023-02-28T09:48:29;3.10;88.80
9837;DHT22;4957;51.412;6.724;2023-02-28T09:53:53;3.30;87.50
9837;DHT22;4957;51.412;6.724;2023-02-28T10:04:39;3.90;82.50
9837;DHT22;4957;51.412;6.724;2023-02-28T10:08:01;4.00;82.50
9837;DHT22;4957;51.412;6.724;2023-02-28T10:10:04;4.20;82.10
9837;DHT22;4957;51.412;6.724;2023-02-28T10:12:33;4.40;80.00
9837;DHT22;4957;51.412;6.724;2023-02-28T10:14:59;4.60;78.70
9837;DHT22;4957;51.412;6.724;2023-02-28T10:17:36;4.70;77.40
9837;DHT22;4957;51.412;6.724;2023-02-28T10:20:23;4.80;79.10
9837;DHT22;4957;51.412;6.724;2023-02-28T10:23:17;4.90;76.70
9837;DHT22;4957;51.412;6.724;2023-02-28T10:25:50;5.00;75.80
9837;DHT22;4957;51.412;6.724;2023-02-28T10:28:18;5.10;76.60
9837;DHT22;4957;51.412;6.724;2023-02-28T10:30:49;5.20;76.00
9837;DHT22;4957;51.412;6.724;2023-02-28T10:33:35;5.30;73.10
9837;DHT22;4957;51.412;6.724;2023-02-28T10:36:03;5.50;73.60
9837;DHT22;4957;51.412;6.724;2023-02-28T10:38:34;5.60;73.50
9837;DHT22;4957;51.412;6.724;2023-02-28T10:41:05;5.60;75.00
9837;DHT22;4957;51.412;6.724;2023-02-28T10:43:31;5.80;70.80
9837;DHT22;4957;51.412;6.724;2023-02-28T10:51:03;6.30;70.40
9837;DHT22;4957;51.412;6.724;2023-02-28T11:01:42;6.80;59.30
9837;DHT22;4957;51.412;6.724;2023-02-28T11:06:56;6.80;61.80
9837;DHT22;4957;51.412;6.724;2023-02-28T11:09:36;6.80;60.30
9837;DHT22;4957;51.412;6.724;2023-02-28T11:12:08;6.80;61.20
9837;DHT22;4957;51.412;6.724;2023-02-28T11:14:53;6.80;63.40
9837;DHT22;4957;51.412;6.724;2023-02-28T11:17:22;6.70;60.70
9837;DHT22;4957;51.412;6.724;2023-02-28T11:19:55;6.90;58.30
9837;DHT22;4957;51.412;6.724;2023-02-28T11:22:27;7.10;58.50
9837;DHT22;4957;51.412;6.724;2023-02-28T11:25:03;7.10;56.40
9837;DHT22;4957;51.412;6.724;2023-02-28T11:29:59;7.20;59.40
9837;DHT22;4957;51.412;6.724;2023-02-28T11:32:29;7.20;58.30
9837;DHT22;4957;51.412;6.724;2023-02-28T11:37:37;7.30;57.70
9837;DHT22;4957;51.412;6.724;2023-02-28T11:40:16;7.30;55.50
9837;DHT22;4957;51.412;6.724;2023-02-28T11:46:03;7.30;54.80
9837;DHT22;4957;51.412;6.724;2023-02-28T11:48:33;7.40;52.70
9837;DHT22;4957;51.412;6.724;2023-02-28T11:59:51;7.50;53.30
9837;DHT22;4957;51.412;6.724;2023-02-28T12:19:51;7.60;50.50
9837;DHT22;4957;51.412;6.724;2023-02-28T12:27:34;7.50;52.50
9837;DHT22;4957;51.412;6.724;2023-02-28T12:32:56;7.70;49.60
9837;DHT22;4957;51.412;6.724;2023-02-28T12:38:19;7.60;51.10
9837;DHT22;4957;51.412;6.724;2023-02-28T12:41:05;7.50;53.90
9837;DHT22;4957;51.412;6.724;2023-02-28T12:43:40;7.40;52.00
9837;DHT22;4957;51.412;6.724;2023-02-28T12:46:12;7.60;49.50
9837;DHT22;4957;51.412;6.724;2023-02-28T12:51:08;7.50;51.80
9837;DHT22;4957;51.412;6.724;2023-02-28T12:58:39;7.60;50.90
9837;DHT22;4957;51.412;6.724;2023-02-28T13:09:16;7.70;51.70
9837;DHT22;4957;51.412;6.724;2023-02-28T13:11:50;7.60;52.50
9837;DHT22;4957;51.412;6.724;2023-02-28T13:14:43;7.60;53.30
9837;DHT22;4957;51.412;6.724;2023-02-28T13:22:35;7.80;51.60
9837;DHT22;4957;51.412;6.724;2023-02-28T13:27:52;7.80;50.90
9837;DHT22;4957;51.412;6.724;2023-02-28T13:33:36;8.00;48.50
9837;DHT22;4957;51.412;6.724;2023-02-28T13:36:31;8.10;49.90
9837;DHT22;4957;51.412;6.724;2023-02-28T13:39:02;8.00;49.80
9837;DHT22;4957;51.412;6.724;2023-02-28T13:49:26;8.10;47.40
9837;DHT22;4957;51.412;6.724;2023-02-28T14:05:21;7.80;49.90
9837;DHT22;4957;51.412;6.724;2023-02-28T14:07:54;7.80;51.70
9837;DHT22;4957;51.412;6.724;2023-02-28T14:10:27;7.80;51.20
9837;DHT22;4957;51.412;6.724;2023-02-28T14:18:01;7.70;50.70
9837;DHT22;4957;51.412;6.724;2023-02-28T14:20:31;7.70;51.10
9837;DHT22;4957;51.412;6.724;2023-02-28T14:23:08;7.70;54.30
9837;DHT22;4957;51.412;6.724;2023-02-28T14:28:20;7.60;54.40
9837;DHT22;4957;51.412;6.724;2023-02-28T14:34:02;7.60;52.60
9837;DHT22;4957;51.412;6.724;2023-02-28T14:36:36;7.60;53.80
9837;DHT22;4957;51.412;6.724;2023-02-28T14:39:10;7.60;54.30
9837;DHT22;4957;51.412;6.724;2023-02-28T14:41:38;7.50;55.30
9837;DHT22;4957;51.412;6.724;2023-02-28T14:44:22;7.50;55.10
9837;DHT22;4957;51.412;6.724;2023-02-28T14:47:13;7.50;53.50
9837;DHT22;4957;51.412;6.724;2023-02-28T14:49:44;7.50;53.90
9837;DHT22;4957;51.412;6.724;2023-02-28T14:52:19;7.50;52.60
9837;DHT22;4957;51.412;6.724;2023-02-28T14:54:46;7.50;53.40
9837;DHT22;4957;51.412;6.724;2023-02-28T14:57:23;7.40;54.80
9837;DHT22;4957;51.412;6.724;2023-02-28T15:02:42;7.40;54.40
9837;DHT22;4957;51.412;6.724;2023-02-28T15:07:47;7.30;57.20
9837;DHT22;4957;51.412;6.724;2023-02-28T15:12:55;7.30;56.00
9837;DHT22;4957;51.412;6.724;2023-02-28T15:15:33;7.30;55.60
9837;DHT22;4957;51.412;6.724;2023-02-28T15:18:03;7.30;55.30
9837;DHT22;4957;51.412;6.724;2023-02-28T15:20:32;7.30;55.90
9837;DHT22;4957;51.412;6.724;2023-02-28T15:22:58;7.30;55.20
9837;DHT22;4957;51.412;6.724;2023-02-28T15:25:25;7.20;55.10
9837;DHT22;4957;51.412;6.724;2023-02-28T15:27:56;7.20;55.10
9837;DHT22;4957;51.412;6.724;2023-02-28T15:30:30;7.20;55.50
9837;DHT22;4957;51.412;6.724;2023-02-28T15:35:38;7.10;54.70
9837;DHT22;4957;51.412;6.724;2023-02-28T15:40:58;7.00;56.10
9837;DHT22;4957;51.412;6.724;2023-02-28T15:43:29;7.00;55.90
9837;DHT22;4957;51.412;6.724;2023-02-28T15:46:03;6.90;56.30
9837;DHT22;4957;51.412;6.724;2023-02-28T15:53:54;6.90;57.40
9837;DHT22;4957;51.412;6.724;2023-02-28T15:56:28;6.80;58.30
9837;DHT22;4957;51.412;6.724;2023-02-28T15:58:56;6.80;58.30
9837;DHT22;4957;51.412;6.724;2023-02-28T16:01:32;6.80;59.10
9837;DHT22;4957;51.412;6.724;2023-02-28T16:04:04;6.80;57.70
9837;DHT22;4957;51.412;6.724;2023-02-28T16:06:42;6.70;58.20
9837;DHT22;4957;51.412;6.724;2023-02-28T16:09:14;6.70;57.80
9837;DHT22;4957;51.412;6.724;2023-02-28T16:11:50;6.70;58.20
9837;DHT22;4957;51.412;6.724;2023-02-28T16:14:23;6.70;57.80
9837;DHT22;4957;51.412;6.724;2023-02-28T16:16:51;6.60;58.10
9837;DHT22;4957;51.412;6.724;2023-02-28T16:19:18;6.60;58.70
9837;DHT22;4957;51.412;6.724;2023-02-28T16:21:45;6.60;58.40
9837;DHT22;4957;51.412;6.724;2023-02-28T16:24:11;6.60;58.10
9837;DHT22;4957;51.412;6.724;2023-02-28T16:26:40;6.50;58.60
9837;DHT22;4957;51.412;6.724;2023-02-28T16:29:06;6.50;59.00
9837;DHT22;4957;51.412;6.724;2023-02-28T16:31:37;6.50;59.20
9837;DHT22;4957;51.412;6.724;2023-02-28T16:34:03;6.40;60.70
9837;DHT22;4957;51.412;6.724;2023-02-28T16:36:29;6.40;60.00
9837;DHT22;4957;51.412;6.724;2023-02-28T16:38:55;6.40;59.40
9837;DHT22;4957;51.412;6.724;2023-02-28T16:41:25;6.40;60.40
9837;DHT22;4957;51.412;6.724;2023-02-28T16:43:52;6.40;59.50
9837;DHT22;4957;51.412;6.724;2023-02-28T16:46:20;6.30;59.40
9837;DHT22;4957;51.412;6.724;2023-02-28T16:48:47;6.30;59.80
9837;DHT22;4957;51.412;6.724;2023-02-28T16:51:17;6.20;60.50
9837;DHT22;4957;51.412;6.724;2023-02-28T16:53:44;6.20;61.20
9837;DHT22;4957;51.412;6.724;2023-02-28T16:56:23;6.20;60.50
9837;DHT22;4957;51.412;6.724;2023-02-28T16:58:50;6.10;58.90
9837;DHT22;4957;51.412;6.724;2023-02-28T17:01:17;6.10;59.70
9837;DHT22;4957;51.412;6.724;2023-02-28T17:03:48;6.10;60.20
9837;DHT22;4957;51.412;6.724;2023-02-28T17:06:20;6.00;61.50
9837;DHT22;4957;51.412;6.724;2023-02-28T17:08:48;6.00;60.10
9837;DHT22;4957;51.412;6.724;2023-02-28T17:11:14;5.90;60.50
9837;DHT22;4957;51.412;6.724;2023-02-28T17:13:40;5.90;60.80
9837;DHT22;4957;51.412;6.724;2023-02-28T17:16:20;5.90;59.80
9837;DHT22;4957;51.412;6.724;2023-02-28T17:18:47;5.90;59.60
9837;DHT22;4957;51.412;6.724;2023-02-28T17:21:15;5.80;61.20
9837;DHT22;4957;51.412;6.724;2023-02-28T17:23:41;5.80;61.00
9837;DHT22;4957;51.412;6.724;2023-02-28T17:26:08;5.70;60.10
9837;DHT22;4957;51.412;6.724;2023-02-28T17:28:35;5.70;61.70
9837;DHT22;4957;51.412;6.724;2023-02-28T17:31:01;5.70;62.00
9837;DHT22;4957;51.412;6.724;2023-02-28T17:33:26;5.70;62.10
9837;DHT22;4957;51.412;6.724;2023-02-28T17:35:52;5.60;62.00
9837;DHT22;4957;51.412;6.724;2023-02-28T17:38:19;5.60;62.60
9837;DHT22;4957;51.412;6.724;2023-02-28T17:40:45;5.50;62.20
9837;DHT22;4957;51.412;6.724;2023-02-28T17:43:10;5.50;62.80
9837;DHT22;4957;51.412;6.724;2023-02-28T17:45:36;5.50;62.50
9837;DHT22;4957;51.412;6.724;2023-02-28T17:48:02;5.50;63.50
9837;DHT22;4957;51.412;6.724;2023-02-28T17:50:28;5.40;63.20
9837;DHT22;4957;51.412;6.724;2023-02-28T17:52:54;5.40;63.20
9837;DHT22;4957;51.412;6.724;2023-02-28T17:55:19;5.40;64.50
9837;DHT22;4957;51.412;6.724;2023-02-28T17:57:45;5.40;65.10
9837;DHT22;4957;51.412;6.724;2023-02-28T18:00:14;5.30;64.50
9837;DHT22;4957;51.412;6.724;2023-02-28T18:02:41;5.30;65.30
9837;DHT22;4957;51.412;6.724;2023-02-28T18:05:08;5.30;64.80
9837;DHT22;4957;51.412;6.724;2023-02-28T18:07:36;5.20;65.50
9837;DHT22;4957;51.412;6.724;2023-02-28T18:10:02;5.20;65.70
9837;DHT22;4957;51.412;6.724;2023-02-28T18:12:28;5.20;65.80
9837;DHT22;4957;51.412;6.724;2023-02-28T18:14:54;5.20;65.80
9837;DHT22;4957;51.412;6.724;2023-02-28T18:17:20;5.20;66.10
9837;DHT22;4957;51.412;6.724;2023-02-28T18:19:46;5.20;66.40
9837;DHT22;4957;51.412;6.724;2023-02-28T18:22:11;5.10;66.60
9837;DHT22;4957;51.412;6.724;2023-02-28T18:24:37;5.10;67.30
9837;DHT22;4957;51.412;6.724;2023-02-28T18:27:03;5.10;67.20
9837;DHT22;4957;51.412;6.724;2023-02-28T18:29:28;5.00;68.00
9837;DHT22;4957;51.412;6.724;2023-02-28T18:31:55;4.90;67.90
9837;DHT22;4957;51.412;6.724;2023-02-28T18:34:22;4.90;67.90
9837;DHT22;4957;51.412;6.724;2023-02-28T18:36:49;4.90;67.90
9837;DHT22;4957;51.412;6.724;2023-02-28T18:39:16;4.80;67.90
9837;DHT22;4957;51.412;6.724;2023-02-28T18:41:42;4.80;67.90
9837;DHT22;4957;51.412;6.724;2023-02-28T18:44:08;4.80;68.40
9837;DHT22;4957;51.412;6.724;2023-02-28T18:46:34;4.80;69.00
9837;DHT22;4957;51.412;6.724;2023-02-28T18:49:00;4.70;68.50
9837;DHT22;4957;51.412;6.724;2023-02-28T18:51:27;4.70;68.70
9837;DHT22;4957;51.412;6.724;2023-02-28T18:53:53;4.70;68.80
9837;DHT22;4957;51.412;6.724;2023-02-28T18:56:21;4.70;69.20
9837;DHT22;4957;51.412;6.724;2023-02-28T18:58:48;4.60;69.50
9837;DHT22;4957;51.412;6.724;2023-02-28T19:01:16;4.60;69.60
9837;DHT22;4957;51.412;6.724;2023-02-28T19:03:43;4.60;69.80
9837;DHT22;4957;51.412;6.724;2023-02-28T19:06:10;4.60;70.20
9837;DHT22;4957;51.412;6.724;2023-02-28T19:08:35;4.60;70.10
9837;DHT22;4957;51.412;6.724;2023-02-28T19:11:08;4.60;70.30
9837;DHT22;4957;51.412;6.724;2023-02-28T19:13:35;4.60;70.20
9837;DHT22;4957;51.412;6.724;2023-02-28T19:16:02;4.60;70.80
9837;DHT22;4957;51.412;6.724;2023-02-28T19:18:28;4.50;70.50
9837;DHT22;4957;51.412;6.724;2023-02-28T19:20:54;4.50;70.80
9837;DHT22;4957;51.412;6.724;2023-02-28T19:23:19;4.50;71.20
9837;DHT22;4957;51.412;6.724;2023-02-28T19:25:45;4.50;71.20
9837;DHT22;4957;51.412;6.724;2023-02-28T19:28:10;4.50;71.20
9837;DHT22;4957;51.412;6.724;2023-02-28T19:30:36;4.40;71.30
9837;DHT22;4957;51.412;6.724;2023-02-28T19:33:02;4.40;71.70